createdAt,value
2022-09-23T00:02:02.215Z,7.13
2022-09-23T00:04:30.020Z,7.60
2022-09-23T00:06:57.268Z,6.82
2022-09-23T00:09:24.525Z,7.93
2022-09-23T00:11:51.811Z,6.78
2022-09-23T00:14:19.089Z,8.35
2022-09-23T00:16:46.518Z,5.90
2022-09-23T00:19:13.899Z,6.53
2022-09-23T00:21:42.625Z,6.75
2022-09-23T00:24:09.978Z,7.53
2022-09-23T00:26:37.274Z,6.15
2022-09-23T00:29:04.661Z,6.82
2022-09-23T00:31:32.078Z,6.60
2022-09-23T00:34:01.561Z,7.70
2022-09-23T00:36:31.347Z,7.65
2022-09-23T00:38:58.960Z,7.18
2022-09-23T00:41:26.964Z,6.60
2022-09-23T00:43:59.881Z,7.45
2022-09-23T00:46:47.462Z,8.30
2022-09-23T00:49:23.488Z,6.13
2022-09-23T00:52:01.631Z,6.20
2022-09-23T00:54:31.080Z,6.53
2022-09-23T00:57:00.669Z,7.28
2022-09-23T00:59:29.178Z,5.70
2022-09-23T01:01:58.900Z,6.00
2022-09-23T01:04:29.893Z,5.72
2022-09-23T01:06:57.158Z,6.35
2022-09-23T01:09:25.314Z,5.85
2022-09-23T01:12:34.894Z,6.05
2022-09-23T01:15:20.388Z,6.80
2022-09-23T01:17:47.622Z,5.35
2022-09-23T01:20:38.958Z,5.80
2022-09-23T01:23:25.019Z,5.43
2022-09-23T01:26:01.270Z,5.35
2022-09-23T01:29:02.626Z,5.03
2022-09-23T01:31:42.924Z,5.53
2022-09-23T01:34:31.929Z,5.40
2022-09-23T01:37:41.024Z,5.13
2022-09-23T01:40:19.128Z,6.57
2022-09-23T01:43:12.088Z,4.85
2022-09-23T01:45:46.234Z,4.43
2022-09-23T01:48:23.652Z,7.18
2022-09-23T01:50:59.943Z,4.38
2022-09-23T01:53:49.602Z,4.72
2022-09-23T01:56:31.899Z,4.95
2022-09-23T01:59:26.595Z,5.10
2022-09-23T02:02:08.042Z,4.30
2022-09-23T02:04:48.050Z,5.60
2022-09-23T02:07:29.784Z,4.75
2022-09-23T02:10:12.032Z,4.28
2022-09-23T02:12:43.178Z,5.28
2022-09-23T02:15:16.693Z,5.07
2022-09-23T02:17:53.962Z,4.80
2022-09-23T02:20:32.922Z,4.25
2022-09-23T02:23:03.364Z,4.32
2022-09-23T02:25:53.250Z,4.45
2022-09-23T02:28:39.619Z,4.47
2022-09-23T02:31:26.738Z,4.47
2022-09-23T02:33:59.928Z,5.20
2022-09-23T02:36:39.226Z,4.30
2022-09-23T02:39:11.258Z,4.40
2022-09-23T02:42:04.265Z,4.45
2022-09-23T02:44:33.006Z,4.25
2022-09-23T02:47:00.804Z,4.38
2022-09-23T02:49:30.353Z,5.38
2022-09-23T02:52:04.821Z,5.65
2022-09-23T02:57:05.864Z,4.43
2022-09-23T02:59:34.298Z,4.20
2022-09-23T03:02:23.703Z,3.72
2022-09-23T03:05:01.609Z,3.72
2022-09-23T03:07:38.221Z,4.10
2022-09-23T03:10:35.397Z,4.13
2022-09-23T03:13:02.591Z,4.25
2022-09-23T03:15:45.204Z,3.92
2022-09-23T03:18:31.700Z,4.90
2022-09-23T03:21:25.153Z,4.95
2022-09-23T03:23:54.039Z,4.07
2022-09-23T03:26:31.616Z,4.63
2022-09-23T03:29:03.203Z,3.58
2022-09-23T03:31:32.388Z,4.90
2022-09-23T03:34:03.454Z,3.75
2022-09-23T03:36:53.688Z,4.47
2022-09-23T03:39:42.221Z,4.53
2022-09-23T03:42:20.994Z,4.05
2022-09-23T03:44:54.011Z,4.35
2022-09-23T03:47:22.140Z,4.95
2022-09-23T03:49:50.964Z,3.47
2022-09-23T03:52:21.144Z,4.30
2022-09-23T03:54:49.112Z,5.00
2022-09-23T03:57:16.383Z,3.90
2022-09-23T03:59:43.926Z,3.25
2022-09-23T04:02:11.873Z,4.57
2022-09-23T04:04:41.128Z,4.03
2022-09-23T04:07:09.111Z,3.30
2022-09-23T04:09:36.874Z,3.83
2022-09-23T04:12:05.263Z,4.72
2022-09-23T04:14:32.564Z,3.90
2022-09-23T04:16:59.937Z,3.08
2022-09-23T04:19:27.202Z,3.83
2022-09-23T04:21:54.530Z,3.63
2022-09-23T04:24:22.075Z,3.38
2022-09-23T04:26:54.740Z,3.10
2022-09-23T04:29:22.910Z,3.22
2022-09-23T04:31:50.909Z,3.80
2022-09-23T04:34:19.296Z,3.10
2022-09-23T04:36:48.388Z,3.88
2022-09-23T04:39:16.864Z,3.65
2022-09-23T04:41:45.085Z,3.65
2022-09-23T04:44:13.666Z,3.72
2022-09-23T04:46:42.232Z,3.65
2022-09-23T04:49:09.893Z,3.42
2022-09-23T04:51:37.257Z,3.38
2022-09-23T04:54:04.694Z,3.85
2022-09-23T04:56:35.107Z,3.20
2022-09-23T04:59:02.438Z,3.28
2022-09-23T05:01:34.646Z,4.07
2022-09-23T05:04:07.740Z,3.20
2022-09-23T05:06:36.023Z,3.17
2022-09-23T05:09:06.456Z,3.85
2022-09-23T05:11:34.611Z,3.60
2022-09-23T05:14:02.281Z,4.25
2022-09-23T05:16:29.662Z,3.17
2022-09-23T05:18:58.114Z,2.95
2022-09-23T05:21:30.311Z,3.60
2022-09-23T05:24:01.311Z,3.25
2022-09-23T05:26:31.962Z,3.17
2022-09-23T05:29:00.086Z,3.95
2022-09-23T05:31:29.637Z,3.45
2022-09-23T05:34:05.249Z,3.17
2022-09-23T05:36:38.196Z,3.95
2022-09-23T05:39:06.654Z,5.95
2022-09-23T05:41:34.185Z,3.47
2022-09-23T05:44:01.822Z,3.78
2022-09-23T05:46:30.898Z,3.13
2022-09-23T05:49:02.483Z,4.07
2022-09-23T05:51:31.392Z,3.67
2022-09-23T05:54:00.043Z,3.47
2022-09-23T05:56:28.853Z,4.85
2022-09-23T05:58:58.427Z,4.38
2022-09-23T06:01:28.753Z,3.67
2022-09-23T06:03:58.400Z,3.60
2022-09-23T06:06:36.035Z,4.00
2022-09-23T06:09:04.430Z,3.53
2022-09-23T06:11:35.367Z,3.38
2022-09-23T06:14:03.990Z,5.25
2022-09-23T06:16:33.993Z,3.65
2022-09-23T06:19:06.282Z,3.75
2022-09-23T06:21:36.508Z,4.18
2022-09-23T06:24:04.715Z,3.60
2022-09-23T06:26:35.568Z,4.65
2022-09-23T06:29:03.535Z,4.55
2022-09-23T06:31:31.845Z,4.05
2022-09-23T06:34:09.566Z,4.05
2022-09-23T06:36:43.708Z,4.80
2022-09-23T06:39:13.094Z,3.38
2022-09-23T06:41:40.376Z,4.72
2022-09-23T06:44:07.781Z,5.72
2022-09-23T06:46:36.480Z,4.57
2022-09-23T06:49:03.851Z,4.88
2022-09-23T06:51:31.253Z,4.18
2022-09-23T06:53:58.501Z,5.75
2022-09-23T06:56:25.739Z,5.65
2022-09-23T06:58:54.199Z,6.15
2022-09-23T07:01:22.513Z,8.73
2022-09-23T07:03:49.836Z,6.68
2022-09-23T07:06:17.402Z,6.43
2022-09-23T07:08:51.143Z,5.18
2022-09-23T07:11:22.384Z,8.93
2022-09-23T07:13:49.738Z,5.53
2022-09-23T07:16:17.228Z,5.60
2022-09-23T07:18:45.732Z,6.32
2022-09-23T07:21:16.073Z,5.45
2022-09-23T07:23:48.592Z,6.53
2022-09-23T07:26:16.996Z,6.80
2022-09-23T07:28:44.310Z,26.00
2022-09-23T07:31:14.883Z,16.77
2022-09-23T07:33:45.714Z,23.13
2022-09-23T07:36:17.288Z,15.75
2022-09-23T07:38:45.805Z,12.43
2022-09-23T07:41:17.907Z,15.27
2022-09-23T07:43:46.938Z,8.75
2022-09-23T07:46:17.499Z,10.50
2022-09-23T07:48:45.980Z,10.90
2022-09-23T07:51:20.950Z,9.85
2022-09-23T07:53:52.521Z,14.07
2022-09-23T07:56:22.336Z,14.70
2022-09-23T07:59:03.781Z,13.70
2022-09-23T08:01:37.263Z,10.25
2022-09-23T08:04:17.890Z,9.45
2022-09-23T08:06:48.866Z,11.80
2022-09-23T08:09:17.667Z,20.90
2022-09-23T08:11:45.005Z,11.20
2022-09-23T08:14:13.874Z,19.27
2022-09-23T08:16:42.031Z,13.98
2022-09-23T08:19:09.600Z,14.00
2022-09-23T08:21:39.270Z,14.20
2022-09-23T08:24:18.532Z,15.00
2022-09-23T08:26:47.468Z,15.82
2022-09-23T08:29:16.730Z,10.43
2022-09-23T08:31:44.643Z,14.27
2022-09-23T08:34:12.775Z,20.40
2022-09-23T08:36:40.065Z,18.67
2022-09-23T08:39:07.689Z,16.95
2022-09-23T08:41:58.252Z,15.18
2022-09-23T08:44:33.362Z,17.02
2022-09-23T08:47:19.385Z,15.60
2022-09-23T08:50:00.298Z,17.10
2022-09-23T08:52:39.457Z,15.85
2022-09-23T08:55:11.541Z,8.73
2022-09-23T08:58:23.404Z,11.50
2022-09-23T09:03:42.337Z,11.63
2022-09-23T09:06:17.877Z,13.43
2022-09-23T09:08:53.031Z,32.40
2022-09-23T09:11:23.469Z,19.08
2022-09-23T09:14:24.483Z,14.35
2022-09-23T09:17:25.135Z,11.98
2022-09-23T09:20:06.179Z,15.10
2022-09-23T09:22:39.268Z,15.55
2022-09-23T09:25:26.739Z,11.48
2022-09-23T09:27:57.198Z,15.60
2022-09-23T09:30:25.553Z,20.42
2022-09-23T09:33:03.374Z,25.40
2022-09-23T09:35:42.041Z,31.13
2022-09-23T09:38:09.335Z,17.73
2022-09-23T09:40:46.429Z,17.30
2022-09-23T09:43:23.258Z,18.15
2022-09-23T09:46:22.860Z,20.58
2022-09-23T09:48:56.339Z,22.42
2022-09-23T09:51:27.664Z,16.98
2022-09-23T09:54:15.265Z,18.52
2022-09-23T09:56:44.483Z,15.10
2022-09-23T09:59:17.996Z,13.60
2022-09-23T10:01:46.860Z,11.95
2022-09-23T10:04:33.864Z,13.27
2022-09-23T10:07:15.919Z,14.80
2022-09-23T10:09:51.211Z,15.75
2022-09-23T10:12:21.638Z,19.77
2022-09-23T10:14:51.351Z,14.70
2022-09-23T10:17:22.718Z,14.60
2022-09-23T10:20:02.620Z,16.45
2022-09-23T10:22:36.359Z,14.30
2022-09-23T10:25:24.439Z,14.90
2022-09-23T10:27:51.685Z,16.27
2022-09-23T10:30:27.589Z,13.27
2022-09-23T10:32:57.005Z,14.25
2022-09-23T10:35:25.692Z,14.15
2022-09-23T10:37:57.867Z,13.23
2022-09-23T10:41:03.164Z,15.90
2022-09-23T10:43:57.993Z,11.90
2022-09-23T10:46:38.333Z,14.63
2022-09-23T10:49:09.102Z,13.40
2022-09-23T10:52:03.455Z,14.85
2022-09-23T10:54:51.309Z,15.80
2022-09-23T10:57:51.020Z,15.25
2022-09-23T11:00:37.840Z,16.45
2022-09-23T11:03:34.464Z,13.45
2022-09-23T11:06:29.411Z,15.75
2022-09-23T11:09:14.564Z,14.18
2022-09-23T11:12:18.514Z,16.67
2022-09-23T11:14:48.861Z,19.15
2022-09-23T11:17:34.704Z,15.48
2022-09-23T11:20:33.479Z,21.35
2022-09-23T11:23:38.429Z,18.95
2022-09-23T11:26:41.298Z,15.27
2022-09-23T11:29:33.156Z,17.88
2022-09-23T11:32:09.204Z,17.95
2022-09-23T11:34:55.027Z,17.25
2022-09-23T11:37:30.348Z,15.68
2022-09-23T11:40:20.902Z,15.55
2022-09-23T11:43:25.618Z,16.45
2022-09-23T11:46:03.361Z,16.47
2022-09-23T11:48:38.662Z,15.18
2022-09-23T11:51:15.152Z,16.48
2022-09-23T11:54:02.919Z,16.58
2022-09-23T11:56:45.506Z,18.38
2022-09-23T11:59:59.181Z,16.20
2022-09-23T12:02:40.596Z,15.95
2022-09-23T12:05:20.596Z,17.27
2022-09-23T12:08:18.889Z,15.68
2022-09-23T12:11:13.111Z,16.98
2022-09-23T12:13:49.908Z,18.08
2022-09-23T12:16:29.397Z,15.43
2022-09-23T12:19:18.870Z,17.25
2022-09-23T12:21:51.817Z,15.07
2022-09-23T12:24:19.332Z,17.67
2022-09-23T12:26:55.103Z,16.40
2022-09-23T12:29:26.358Z,17.88
2022-09-23T12:31:54.071Z,16.85
2022-09-23T12:34:56.190Z,15.50
2022-09-23T12:37:27.206Z,17.40
2022-09-23T12:39:58.426Z,18.95
2022-09-23T12:42:30.272Z,18.25
2022-09-23T12:45:28.140Z,18.23
2022-09-23T12:47:55.362Z,18.60
2022-09-23T12:50:48.401Z,19.10
2022-09-23T12:53:33.951Z,19.17
2022-09-23T12:56:19.690Z,20.70
2022-09-23T12:59:09.800Z,19.15
2022-09-23T13:01:38.267Z,19.08
2022-09-23T13:04:35.110Z,21.17
2022-09-23T13:07:09.854Z,18.90
2022-09-23T13:09:45.319Z,19.58
2022-09-23T13:12:23.257Z,19.60
2022-09-23T13:14:54.675Z,20.02
2022-09-23T13:17:38.220Z,20.33
2022-09-23T13:20:06.847Z,20.65
2022-09-23T13:23:00.016Z,20.13
2022-09-23T13:25:32.525Z,19.65
2022-09-23T13:28:03.796Z,19.88
2022-09-23T13:30:31.108Z,21.27
2022-09-23T13:33:06.458Z,21.27
2022-09-23T13:35:37.794Z,23.70
2022-09-23T13:38:18.434Z,23.17
2022-09-23T13:40:46.456Z,21.55
2022-09-23T13:43:31.763Z,20.65
2022-09-23T13:46:00.829Z,22.17
2022-09-23T13:48:29.052Z,23.92
2022-09-23T13:50:56.474Z,22.88
2022-09-23T13:53:26.177Z,27.13
2022-09-23T13:56:02.201Z,28.35
2022-09-23T13:58:31.503Z,30.15
2022-09-23T14:00:59.610Z,33.80
2022-09-23T14:03:36.606Z,35.30
2022-09-23T14:06:15.014Z,35.80
2022-09-23T14:08:50.117Z,37.30
2022-09-23T14:11:33.164Z,39.08
2022-09-23T14:14:07.773Z,44.05
2022-09-23T14:16:39.601Z,42.25
2022-09-23T14:19:11.423Z,47.83
2022-09-23T14:21:40.407Z,52.13
2022-09-23T14:24:29.816Z,49.08
2022-09-23T14:27:13.936Z,49.33
2022-09-23T14:29:45.555Z,51.70
2022-09-23T14:32:17.356Z,55.15
2022-09-23T14:35:04.586Z,51.13
2022-09-23T14:38:02.279Z,56.53
2022-09-23T14:40:50.513Z,57.60
2022-09-23T14:43:28.961Z,57.40
2022-09-23T14:45:58.320Z,60.15
2022-09-23T14:48:34.938Z,59.33
2022-09-23T14:51:07.386Z,62.92
2022-09-23T14:53:40.862Z,60.88
2022-09-23T14:56:08.093Z,57.55
2022-09-23T14:58:56.225Z,56.33
2022-09-23T15:01:36.572Z,61.75
2022-09-23T15:04:17.865Z,61.30
2022-09-23T15:06:53.635Z,62.35
2022-09-23T15:09:27.731Z,61.92
2022-09-23T15:12:01.891Z,59.67
2022-09-23T15:14:39.411Z,56.17
2022-09-23T15:17:40.610Z,57.35
2022-09-23T15:20:17.980Z,57.08
2022-09-23T15:22:50.962Z,55.63
2022-09-23T15:25:20.920Z,57.63
2022-09-23T15:28:05.771Z,52.45
2022-09-23T15:33:03.260Z,50.85
2022-09-23T15:35:32.165Z,47.70
2022-09-23T15:38:02.161Z,49.08
2022-09-23T15:40:35.082Z,48.92
2022-09-23T15:43:22.054Z,48.22
2022-09-23T15:45:53.840Z,47.80
2022-09-23T15:48:32.474Z,47.60
2022-09-23T15:51:06.799Z,45.55
2022-09-23T15:53:34.419Z,43.67
2022-09-23T15:56:02.029Z,44.10
2022-09-23T15:58:29.468Z,44.88
2022-09-23T16:00:57.514Z,45.17
2022-09-23T16:03:28.511Z,44.10
2022-09-23T16:06:01.283Z,42.33
2022-09-23T16:08:29.384Z,43.47
2022-09-23T16:10:56.722Z,43.88
2022-09-23T16:13:24.047Z,42.63
2022-09-23T16:15:51.360Z,41.13
2022-09-23T16:18:18.642Z,41.22
2022-09-23T16:20:47.699Z,40.63
2022-09-23T16:23:35.884Z,38.78
2022-09-23T16:26:24.144Z,39.58
2022-09-23T16:28:54.081Z,39.70
2022-09-23T16:31:25.320Z,38.03
2022-09-23T16:33:53.234Z,38.72
2022-09-23T16:36:34.714Z,38.08
2022-09-23T16:39:05.134Z,35.22
2022-09-23T16:41:33.031Z,35.95
2022-09-23T16:44:02.125Z,34.92
2022-09-23T16:46:31.341Z,34.33
2022-09-23T16:48:59.417Z,34.40
2022-09-23T16:51:33.386Z,31.10
2022-09-23T16:54:00.648Z,33.60
2022-09-23T16:56:29.747Z,34.75
2022-09-23T16:58:57.563Z,34.17
2022-09-23T17:01:45.617Z,32.85
2022-09-23T17:04:14.182Z,34.65
2022-09-23T17:06:48.962Z,35.10
2022-09-23T17:09:21.097Z,34.75
2022-09-23T17:11:56.387Z,32.58
2022-09-23T17:14:23.633Z,33.70
2022-09-23T17:16:51.015Z,32.10
2022-09-23T17:19:18.338Z,31.40
2022-09-23T17:21:45.583Z,31.58
2022-09-23T17:24:12.841Z,31.73
2022-09-23T17:26:40.109Z,33.20
2022-09-23T17:29:09.495Z,34.10
2022-09-23T17:31:36.828Z,34.83
2022-09-23T17:34:04.139Z,32.85
2022-09-23T17:36:31.848Z,33.40
2022-09-23T17:38:59.131Z,32.65
2022-09-23T17:41:26.851Z,34.75
2022-09-23T17:43:56.637Z,34.67
2022-09-23T17:46:24.273Z,34.67
2022-09-23T17:48:55.646Z,30.65
2022-09-23T17:51:24.048Z,33.10
2022-09-23T17:53:51.600Z,29.70
2022-09-23T17:56:23.027Z,32.25
2022-09-23T17:58:51.302Z,29.95
2022-09-23T18:01:19.971Z,28.38
2022-09-23T18:03:48.337Z,27.75
2022-09-23T18:06:20.827Z,28.40
2022-09-23T18:08:49.549Z,28.70
2022-09-23T18:11:21.182Z,27.80
2022-09-23T18:13:56.970Z,26.85
2022-09-23T18:16:26.879Z,27.80
2022-09-23T18:18:59.127Z,27.10
2022-09-23T18:21:32.612Z,27.23
2022-09-23T18:24:21.716Z,25.73
2022-09-23T18:26:49.755Z,24.08
2022-09-23T18:29:17.328Z,24.83
2022-09-23T18:31:45.578Z,21.38
2022-09-23T18:34:15.178Z,23.52
2022-09-23T18:36:43.147Z,21.85
2022-09-23T18:39:10.585Z,24.45
2022-09-23T18:41:37.842Z,22.77
2022-09-23T18:44:05.708Z,21.98
2022-09-23T18:46:33.275Z,21.80
2022-09-23T18:49:19.088Z,20.17
2022-09-23T18:51:52.308Z,19.58
2022-09-23T18:54:20.077Z,20.80
2022-09-23T18:56:49.247Z,17.15
2022-09-23T18:59:19.402Z,18.58
2022-09-23T19:01:49.920Z,17.40
2022-09-23T19:04:20.205Z,16.35
2022-09-23T19:06:48.308Z,15.57
2022-09-23T19:09:16.420Z,16.67
2022-09-23T19:11:44.416Z,18.92
2022-09-23T19:14:12.668Z,15.98
2022-09-23T19:16:41.294Z,16.65
2022-09-23T19:19:09.093Z,15.88
2022-09-23T19:21:37.194Z,15.23
2022-09-23T19:24:06.965Z,13.15
2022-09-23T19:26:43.941Z,14.57
2022-09-23T19:29:16.805Z,14.68
2022-09-23T19:31:44.348Z,13.02
2022-09-23T19:34:23.684Z,12.07
2022-09-23T19:36:52.730Z,12.07
2022-09-23T19:39:26.222Z,13.40
2022-09-23T19:41:55.749Z,12.88
2022-09-23T19:44:25.074Z,11.68
2022-09-23T19:46:56.355Z,11.15
2022-09-23T19:49:25.735Z,11.73
2022-09-23T19:51:55.802Z,11.65
2022-09-23T19:54:26.055Z,12.30
2022-09-23T19:56:53.393Z,12.20
2022-09-23T19:59:20.671Z,10.05
2022-09-23T20:01:49.092Z,9.95
2022-09-23T20:04:17.004Z,11.95
2022-09-23T20:06:45.973Z,11.00
2022-09-23T20:09:13.531Z,9.95
2022-09-23T20:11:43.042Z,10.02
2022-09-23T20:14:11.876Z,10.98
2022-09-23T20:16:39.318Z,10.93
2022-09-23T20:19:06.942Z,11.73
2022-09-23T20:21:35.526Z,9.98
2022-09-23T20:24:07.613Z,9.65
2022-09-23T20:26:53.720Z,9.73
2022-09-23T20:29:20.965Z,8.88
2022-09-23T20:31:48.931Z,8.93
2022-09-23T20:34:16.446Z,8.50
2022-09-23T20:36:44.225Z,9.18
2022-09-23T20:39:11.589Z,9.20
2022-09-23T20:41:39.640Z,8.98
2022-09-23T20:44:12.239Z,8.75
2022-09-23T20:46:42.993Z,9.18
2022-09-23T20:49:14.776Z,9.65
2022-09-23T20:51:42.054Z,8.48
2022-09-23T20:54:09.441Z,8.98
2022-09-23T20:56:36.657Z,8.80
2022-09-23T20:59:05.468Z,8.55
2022-09-23T21:01:36.887Z,8.48
2022-09-23T21:04:05.847Z,8.38
2022-09-23T21:06:37.671Z,8.50
2022-09-23T21:09:06.091Z,8.35
2022-09-23T21:11:33.864Z,9.50
2022-09-23T21:14:01.450Z,9.07
2022-09-23T21:16:29.082Z,8.43
2022-09-23T21:18:57.513Z,8.23
2022-09-23T21:21:25.078Z,8.50
2022-09-23T21:23:52.728Z,8.00
2022-09-23T21:26:24.990Z,8.60
2022-09-23T21:29:00.842Z,8.45
2022-09-23T21:31:33.882Z,8.50
2022-09-23T21:34:11.594Z,8.25
2022-09-23T21:36:42.706Z,7.55
2022-09-23T21:39:11.679Z,7.20
2022-09-23T21:41:39.773Z,7.85
2022-09-23T21:44:08.389Z,8.25
2022-09-23T21:46:36.635Z,8.45
2022-09-23T21:49:05.177Z,8.50
2022-09-23T21:51:40.175Z,7.78
2022-09-23T21:54:15.900Z,7.88
2022-09-23T21:56:44.438Z,7.75
2022-09-23T21:59:11.898Z,7.95
2022-09-23T22:01:48.353Z,8.00
2022-09-23T22:04:20.372Z,8.50
2022-09-23T22:06:49.056Z,7.82
2022-09-23T22:09:18.930Z,8.18
2022-09-23T22:12:05.178Z,8.13
2022-09-23T22:14:32.497Z,7.53
2022-09-23T22:17:02.525Z,8.30
2022-09-23T22:19:35.869Z,7.70
2022-09-23T22:22:09.705Z,7.68
2022-09-23T22:24:36.950Z,7.70
2022-09-23T22:27:04.381Z,8.27
2022-09-23T22:29:49.996Z,7.63
2022-09-23T22:32:55.325Z,7.43
2022-09-23T22:35:22.718Z,7.18
2022-09-23T22:37:50.550Z,7.60
2022-09-23T22:40:17.998Z,7.03
2022-09-23T22:42:45.561Z,7.13
2022-09-23T22:45:13.617Z,8.02
2022-09-23T22:47:45.146Z,7.18
2022-09-23T22:50:14.317Z,7.65
2022-09-23T22:52:41.669Z,6.95
2022-09-23T22:55:09.331Z,6.80
2022-09-23T22:57:37.072Z,6.55
2022-09-23T23:00:06.080Z,7.05
2022-09-23T23:02:33.354Z,6.95
2022-09-23T23:05:00.936Z,6.63
2022-09-23T23:07:28.239Z,6.90
2022-09-23T23:09:55.571Z,6.68
2022-09-23T23:12:22.814Z,6.53
2022-09-23T23:14:50.221Z,5.90
2022-09-23T23:17:18.727Z,9.05
2022-09-23T23:19:46.025Z,6.80
2022-09-23T23:22:13.326Z,6.70
2022-09-23T23:24:40.657Z,6.53
2022-09-23T23:27:08.220Z,6.55
2022-09-23T23:29:35.500Z,6.30
2022-09-23T23:32:02.925Z,6.10
2022-09-23T23:34:30.204Z,6.30
2022-09-23T23:36:57.500Z,6.03
2022-09-23T23:39:25.842Z,6.40
2022-09-23T23:41:55.136Z,6.25
2022-09-23T23:44:26.656Z,6.50
2022-09-23T23:46:55.264Z,6.22
2022-09-23T23:49:22.967Z,6.30
2022-09-23T23:51:50.241Z,6.50
2022-09-23T23:54:17.541Z,6.40
2022-09-23T23:56:44.884Z,6.03
2022-09-23T23:59:12.427Z,5.82
